Time;durP1;ratioP1;P1;durP2;ratioP2;P2;SDS_P1;SDS_P2;PMS_P1;PMS_P2;Temp;Humidity;BMP_temperature;BMP_pressure;BME280_temperature;BME280_humidity;BME280_pressure;Samples;Min_cycle;Max_cycle;Signal;HPM_P1;HPM_P2
2021/12/24 05:57:13;;;;;;;4.03;1.83;;;10.00;97.60;;;;;;5967974;23;20215;-75
2021/12/24 05:59:40;;;;;;;4.93;2.00;;;10.00;97.60;;;;;;4956979;28;20077;-76
2021/12/24 06:02:07;;;;;;;4.53;1.90;;;10.10;97.70;;;;;;4970915;28;20505;-77
2021/12/24 06:04:34;;;;;;;3.30;1.55;;;10.00;97.70;;;;;;4974675;28;20053;-77
2021/12/24 06:07:01;;;;;;;4.57;1.80;;;10.10;97.70;;;;;;4975088;28;20050;-77
2021/12/24 06:09:29;;;;;;;3.50;1.60;;;10.10;97.70;;;;;;4971611;28;20039;-80
2021/12/24 06:11:56;;;;;;;6.20;2.00;;;10.00;98.00;;;;;;4967532;28;20062;-76
2021/12/24 06:14:24;;;;;;;4.20;2.00;;;10.00;97.80;;;;;;4955048;28;20092;-77
2021/12/24 06:17:01;;;;;;;4.47;1.80;;;10.10;97.80;;;;;;4965615;28;20043;-76
2021/12/24 06:19:28;;;;;;;3.67;1.73;;;10.00;97.80;;;;;;4957955;28;20048;-76
2021/12/24 06:21:55;;;;;;;3.40;1.77;;;10.00;97.80;;;;;;4968114;28;20153;-76
2021/12/24 06:24:23;;;;;;;3.92;1.80;;;10.10;97.80;;;;;;4970073;28;20043;-76
2021/12/24 06:26:50;;;;;;;5.35;2.00;;;10.00;97.80;;;;;;4957434;28;20047;-76
2021/12/24 06:29:18;;;;;;;4.07;2.15;;;10.10;97.90;;;;;;4974692;28;20051;-76
2021/12/24 06:31:46;;;;;;;3.83;1.70;;;10.00;97.90;;;;;;4963103;28;20107;-76
2021/12/24 06:34:13;;;;;;;3.50;1.70;;;10.00;97.90;;;;;;4955036;28;20131;-77
2021/12/24 06:36:43;;;;;;;3.65;1.58;;;10.00;98.10;;;;;;4959667;28;20061;-76
2021/12/24 06:39:10;;;;;;;4.75;1.80;;;10.00;98.20;;;;;;4958030;28;20109;-76
2021/12/24 06:41:38;;;;;;;3.58;2.00;;;9.90;98.20;;;;;;4961397;28;20046;-75
2021/12/24 06:44:09;;;;;;;3.83;1.67;;;9.90;98.30;;;;;;4959905;28;20053;-76
2021/12/24 06:46:36;;;;;;;5.28;2.10;;;9.90;98.40;;;;;;4954800;29;20058;-76
2021/12/24 06:49:05;;;;;;;4.55;2.10;;;9.90;98.60;;;;;;4963084;28;20139;-76
2021/12/24 06:51:32;;;;;;;4.10;2.00;;;9.90;98.70;;;;;;4963960;28;20090;-76
2021/12/24 06:54:00;;;;;;;4.35;1.88;;;9.80;98.70;;;;;;4955311;28;20051;-76
2021/12/24 06:56:28;;;;;;;5.03;1.90;;;9.80;99.10;;;;;;4964534;28;20039;-76
2021/12/24 06:58:55;;;;;;;5.38;2.10;;;9.70;98.80;;;;;;4954619;28;20523;-76
2021/12/24 07:01:22;;;;;;;4.35;2.15;;;9.80;98.70;;;;;;4954769;29;20047;-76
2021/12/24 07:03:49;;;;;;;5.03;1.90;;;9.80;98.70;;;;;;4954855;29;20051;-77
2021/12/24 07:06:18;;;;;;;7.03;2.28;;;9.80;98.60;;;;;;4956643;28;20057;-77
2021/12/24 07:08:45;;;;;;;5.53;2.00;;;9.80;98.50;;;;;;4976184;28;20073;-77
2021/12/24 07:11:12;;;;;;;4.18;2.08;;;9.80;98.50;;;;;;4978124;28;20047;-77
2021/12/24 07:13:39;;;;;;;4.63;2.30;;;9.70;98.40;;;;;;4978092;28;20129;-77
2021/12/24 07:16:07;;;;;;;4.63;2.03;;;9.70;98.40;;;;;;4975982;28;20051;-75
2021/12/24 07:18:36;;;;;;;4.82;2.13;;;9.70;98.40;;;;;;4964887;28;20043;-78
2021/12/24 07:21:03;;;;;;;4.93;2.17;;;9.70;98.40;;;;;;4958754;29;20059;-78
2021/12/24 07:23:32;;;;;;;4.88;2.22;;;9.70;98.50;;;;;;4963474;28;20083;-76
2021/12/24 07:25:59;;;;;;;4.60;2.00;;;9.70;98.50;;;;;;4970376;28;20134;-76
2021/12/24 07:28:26;;;;;;;4.18;1.90;;;9.70;98.60;;;;;;4967958;28;20511;-77
2021/12/24 07:30:53;;;;;;;3.40;1.80;;;9.70;98.60;;;;;;4958034;28;20065;-77
2021/12/24 07:33:20;;;;;;;4.95;2.47;;;9.60;98.60;;;;;;4958027;28;20059;-76
2021/12/24 07:35:48;;;;;;;4.63;2.20;;;9.70;98.60;;;;;;4958560;28;20450;-76
2021/12/24 07:38:15;;;;;;;4.72;2.35;;;9.60;98.60;;;;;;4961631;28;20047;-76
2021/12/24 07:40:46;;;;;;;5.05;2.30;;;9.60;98.70;;;;;;4958514;28;20082;-77
2021/12/24 07:43:15;;;;;;;4.75;2.42;;;9.60;98.70;;;;;;4965947;28;20050;-77
2021/12/24 07:45:44;;;;;;;4.85;2.30;;;9.60;98.60;;;;;;4965672;28;20039;-77
2021/12/24 07:48:14;;;;;;;5.28;2.72;;;9.60;98.60;;;;;;4977417;28;20055;-76
2021/12/24 07:53:27;;;;;;;5.22;2.20;;;9.60;98.80;;;;;;4937670;28;20504;-76
2021/12/24 07:55:58;;;;;;;5.40;2.40;;;9.70;98.80;;;;;;4957629;28;20047;-76
2021/12/24 07:58:25;;;;;;;4.55;2.15;;;9.70;98.80;;;;;;4960362;28;20500;-77
2021/12/24 08:00:53;;;;;;;5.15;2.22;;;9.70;98.80;;;;;;4960758;28;20039;-81
2021/12/24 08:03:20;;;;;;;4.97;2.30;;;9.70;99.00;;;;;;4970443;28;20054;-79
2021/12/24 08:05:49;;;;;;;4.85;2.35;;;9.70;99.10;;;;;;4973862;28;20058;-79
2021/12/24 08:08:16;;;;;;;5.88;2.13;;;9.70;98.90;;;;;;4977084;28;20498;-78
2021/12/24 08:10:43;;;;;;;4.97;2.50;;;9.70;99.00;;;;;;4977354;28;20054;-78
2021/12/24 08:13:12;;;;;;;5.30;2.60;;;9.70;99.10;;;;;;4977253;28;20046;-78
2021/12/24 08:15:40;;;;;;;5.10;2.00;;;9.70;99.10;;;;;;4977155;28;20054;-78
2021/12/24 08:18:07;;;;;;;4.25;2.30;;;9.70;99.10;;;;;;4970939;28;20089;-79
2021/12/24 08:20:34;;;;;;;5.10;2.10;;;9.70;99.20;;;;;;4957035;28;20047;-78
2021/12/24 08:23:01;;;;;;;4.63;2.22;;;9.60;99.20;;;;;;4957297;29;20141;-78
2021/12/24 08:25:28;;;;;;;4.40;2.30;;;9.70;99.20;;;;;;4958236;28;20067;-78
2021/12/24 08:27:56;;;;;;;6.30;2.55;;;9.70;99.30;;;;;;4958686;28;20079;-78
2021/12/24 08:30:24;;;;;;;4.97;2.33;;;9.60;99.30;;;;;;4957453;28;20413;-78
2021/12/24 08:32:51;;;;;;;6.05;2.60;;;9.60;99.60;;;;;;4957358;28;20125;-77
2021/12/24 08:35:22;;;;;;;4.22;2.30;;;9.60;99.40;;;;;;4964880;28;20047;-78
2021/12/24 08:37:49;;;;;;;4.97;2.20;;;9.60;99.40;;;;;;4975661;28;20047;-78
2021/12/24 08:40:16;;;;;;;4.60;2.13;;;9.60;99.40;;;;;;4975972;28;20416;-78
2021/12/24 08:42:44;;;;;;;4.82;2.30;;;9.60;99.60;;;;;;4976211;28;20050;-77
2021/12/24 08:45:11;;;;;;;4.72;2.28;;;9.60;99.70;;;;;;4959536;28;20126;-78
2021/12/24 08:47:41;;;;;;;4.60;2.15;;;9.60;99.70;;;;;;4957029;29;20438;-77
2021/12/24 08:50:12;;;;;;;5.38;2.60;;;9.60;99.80;;;;;;4958181;28;20051;-78
2021/12/24 08:52:42;;;;;;;7.22;2.67;;;9.60;99.80;;;;;;4957059;29;20412;-78
2021/12/24 08:55:10;;;;;;;5.00;2.35;;;9.60;99.90;;;;;;4969394;28;20047;-77
2021/12/24 08:57:38;;;;;;;5.28;2.70;;;9.60;99.90;;;;;;4971093;28;20405;-78
2021/12/24 09:00:09;;;;;;;5.43;2.30;;;9.60;99.90;;;;;;4965611;28;20075;-78
2021/12/24 09:02:37;;;;;;;5.38;2.72;;;9.60;99.90;;;;;;4956626;29;20051;-78
2021/12/24 09:05:07;;;;;;;4.13;2.22;;;9.60;99.90;;;;;;4967645;28;20130;-78
2021/12/24 09:07:35;;;;;;;4.32;2.40;;;9.60;99.90;;;;;;4960390;28;20051;-78
2021/12/24 09:10:03;;;;;;;5.78;2.50;;;9.60;99.90;;;;;;4958447;28;20055;-78
2021/12/24 09:12:31;;;;;;;4.95;2.38;;;9.60;99.90;;;;;;4956343;29;20477;-78
2021/12/24 09:14:58;;;;;;;5.07;2.30;;;9.50;99.90;;;;;;4956725;28;20054;-78
2021/12/24 09:17:27;;;;;;;5.40;2.85;;;9.60;99.90;;;;;;4965223;28;20139;-78
2021/12/24 09:19:55;;;;;;;4.65;2.40;;;9.60;99.90;;;;;;4956592;28;20048;-78
2021/12/24 09:22:30;;;;;;;5.32;2.50;;;9.60;99.90;;;;;;4969045;28;20342;-78
2021/12/24 09:24:57;;;;;;;5.53;2.60;;;9.60;99.90;;;;;;4967926;28;20135;-80
2021/12/24 09:27:27;;;;;;;4.85;2.47;;;9.60;99.90;;;;;;4961320;28;20130;-80
2021/12/24 09:29:54;;;;;;;5.95;2.47;;;9.60;99.90;;;;;;4961562;28;20047;-81
2021/12/24 09:32:21;;;;;;;6.90;2.50;;;9.60;99.90;;;;;;4956291;28;20142;-79
2021/12/24 09:34:48;;;;;;;6.20;3.03;;;9.60;99.90;;;;;;4957836;28;20138;-81
2021/12/24 09:37:16;;;;;;;4.97;2.65;;;9.50;99.90;;;;;;4956466;28;20126;-81
2021/12/24 09:39:44;;;;;;;4.43;2.50;;;9.60;99.90;;;;;;4962561;28;20049;-81
2021/12/24 09:42:11;;;;;;;9.45;4.60;;;9.50;99.90;;;;;;4965308;28;20050;-81
2021/12/24 09:44:38;;;;;;;5.22;3.00;;;9.50;99.90;;;;;;4968736;28;20051;-80
2021/12/24 09:47:07;;;;;;;4.97;2.78;;;9.50;99.90;;;;;;4963541;28;20051;-80
2021/12/24 09:49:35;;;;;;;5.82;3.10;;;9.50;99.90;;;;;;4967421;28;20043;-80
2021/12/24 09:52:05;;;;;;;5.35;2.97;;;9.40;99.90;;;;;;4966479;28;20061;-80
2021/12/24 09:54:32;;;;;;;6.38;2.80;;;9.40;99.90;;;;;;4959627;28;20052;-80
2021/12/24 09:57:01;;;;;;;6.28;2.97;;;9.40;99.90;;;;;;4960542;28;20075;-80
2021/12/24 09:59:29;;;;;;;5.75;3.25;;;9.40;99.90;;;;;;4965873;28;20086;-81
2021/12/24 10:02:01;;;;;;;5.78;2.75;;;9.40;99.90;;;;;;4966609;28;20126;-80
2021/12/24 10:04:31;;;;;;;6.53;2.70;;;9.40;99.90;;;;;;4966092;28;20042;-80
2021/12/24 10:07:04;;;;;;;6.88;2.67;;;9.40;99.90;;;;;;4965050;28;20046;-80
2021/12/24 10:09:34;;;;;;;4.88;2.45;;;9.40;99.90;;;;;;4962058;28;20476;-80
2021/12/24 10:12:07;;;;;;;4.32;2.45;;;9.40;99.90;;;;;;4957556;28;20082;-81
2021/12/24 10:14:37;;;;;;;5.00;2.67;;;9.40;99.90;;;;;;4971594;28;20050;-83
2021/12/24 10:17:14;;;;;;;5.30;2.65;;;9.40;99.90;;;;;;4964392;28;20090;-82
2021/12/24 10:19:46;;;;;;;5.18;2.45;;;9.40;99.90;;;;;;4958479;28;20059;-81
2021/12/24 10:22:15;;;;;;;5.95;2.60;;;9.30;99.90;;;;;;4955074;28;20051;-81
2021/12/24 10:24:42;;;;;;;4.30;2.30;;;9.30;99.90;;;;;;4960804;28;20171;-82
2021/12/24 10:27:11;;;;;;;5.68;2.40;;;9.30;99.90;;;;;;4959265;28;20379;-79
2021/12/24 10:29:41;;;;;;;5.38;2.58;;;9.30;99.90;;;;;;4954942;29;20138;-80
2021/12/24 10:32:14;;;;;;;5.50;2.50;;;9.30;99.90;;;;;;4954780;29;20054;-80
2021/12/24 10:34:42;;;;;;;5.50;2.65;;;9.30;99.90;;;;;;4954934;29;20047;-81
2021/12/24 10:37:18;;;;;;;5.25;2.33;;;9.20;99.90;;;;;;4955016;28;20477;-81
2021/12/24 10:39:51;;;;;;;4.93;2.50;;;9.20;99.90;;;;;;4955019;29;20150;-80
2021/12/24 10:42:28;;;;;;;4.70;2.28;;;9.20;99.90;;;;;;4954953;28;20107;-80
2021/12/24 10:44:57;;;;;;;4.57;2.40;;;9.20;99.90;;;;;;4957030;28;20090;-80
2021/12/24 10:47:27;;;;;;;5.53;2.58;;;9.20;99.90;;;;;;4954542;28;20062;-81
2021/12/24 10:50:09;;;;;;;4.88;2.28;;;9.20;99.90;;;;;;4959028;28;20074;-81
2021/12/24 10:55:37;;;;;;;4.63;2.22;;;9.20;99.90;;;;;;4958770;28;20046;-82
2021/12/24 10:58:15;;;;;;;3.95;1.98;;;9.20;99.90;;;;;;4963109;28;20059;-81
2021/12/24 11:00:46;;;;;;;4.88;1.90;;;9.20;99.90;;;;;;4957333;28;20075;-81
2021/12/24 11:03:19;;;;;;;5.80;2.00;;;9.20;99.90;;;;;;4959405;28;20465;-82
2021/12/24 11:05:49;;;;;;;4.03;2.00;;;9.20;99.90;;;;;;4970592;28;20049;-82
2021/12/24 11:08:20;;;;;;;4.68;2.25;;;9.20;99.90;;;;;;4959693;28;20054;-81
2021/12/24 11:10:50;;;;;;;4.65;1.98;;;9.10;99.90;;;;;;4972191;28;20081;-79
2021/12/24 11:13:21;;;;;;;4.88;2.03;;;9.10;99.90;;;;;;4967054;28;20058;-78
2021/12/24 11:15:50;;;;;;;5.80;2.30;;;9.10;99.90;;;;;;4962306;28;20053;-79
2021/12/24 11:18:20;;;;;;;4.78;2.15;;;9.10;99.90;;;;;;4958781;28;20070;-79
2021/12/24 11:21:02;;;;;;;4.35;1.90;;;9.10;99.90;;;;;;4964919;28;20051;-83
2021/12/24 11:23:31;;;;;;;3.60;1.95;;;9.10;99.90;;;;;;4961438;28;20043;-78
2021/12/24 11:26:02;;;;;;;3.67;1.80;;;9.10;99.90;;;;;;4965466;28;20051;-78
2021/12/24 11:28:31;;;;;;;4.68;2.05;;;9.10;99.90;;;;;;4969697;28;20054;-81
2021/12/24 11:31:01;;;;;;;4.30;2.00;;;9.10;99.90;;;;;;4957713;28;20134;-79
2021/12/24 11:33:32;;;;;;;4.05;1.73;;;9.10;99.90;;;;;;4962858;28;20039;-79
2021/12/24 11:36:01;;;;;;;9.70;4.90;;;9.00;99.90;;;;;;4962333;28;20057;-79
2021/12/24 11:38:33;;;;;;;13.68;5.55;;;9.00;99.90;;;;;;4968241;28;20134;-80
2021/12/24 11:41:03;;;;;;;8.60;3.72;;;9.00;99.90;;;;;;4969054;28;20515;-79
2021/12/24 11:43:35;;;;;;;4.00;2.28;;;9.00;99.90;;;;;;4958508;28;20536;-79
2021/12/24 11:46:06;;;;;;;5.95;2.20;;;9.00;99.90;;;;;;4965155;28;20057;-80
2021/12/24 11:48:35;;;;;;;3.92;2.00;;;9.00;99.90;;;;;;4955761;28;20138;-79
2021/12/24 11:51:05;;;;;;;4.22;1.77;;;9.00;99.90;;;;;;4963857;28;20049;-78
2021/12/24 11:53:33;;;;;;;4.93;1.90;;;9.00;99.90;;;;;;4955916;28;20123;-79
2021/12/24 11:56:06;;;;;;;5.97;2.10;;;9.00;99.90;;;;;;4972309;28;20051;-79
2021/12/24 11:58:44;;;;;;;4.25;2.17;;;9.00;99.90;;;;;;4963469;28;20055;-79
2021/12/24 12:01:11;;;;;;;4.65;1.75;;;9.10;99.90;;;;;;4957466;28;20079;-80
2021/12/24 12:03:41;;;;;;;4.18;2.08;;;9.10;99.90;;;;;;4957409;28;20126;-79
2021/12/24 12:06:12;;;;;;;4.93;2.20;;;9.10;99.90;;;;;;4962697;28;20051;-83
2021/12/24 12:08:41;;;;;;;4.68;2.08;;;9.10;99.90;;;;;;4970794;28;20139;-78
2021/12/24 12:11:20;;;;;;;4.03;1.90;;;9.10;99.90;;;;;;4965613;28;20137;-81
2021/12/24 12:13:57;;;;;;;3.97;1.90;;;9.10;99.90;;;;;;4967039;28;20103;-79
2021/12/24 12:16:30;;;;;;;3.85;2.00;;;9.10;99.90;;;;;;4965538;28;20057;-79
2021/12/24 12:19:15;;;;;;;4.57;2.08;;;9.10;99.90;;;;;;4966190;28;20051;-78
2021/12/24 12:22:14;;;;;;;4.80;2.33;;;9.10;99.90;;;;;;4962236;28;20048;-79
2021/12/24 12:27:31;;;;;;;;;;;9.10;99.90;;;;;;4953665;28;21426;-79
2021/12/24 12:30:23;;;;;;;4.68;2.08;;;9.10;99.90;;;;;;4954010;28;20424;-79
2021/12/24 12:32:52;;;;;;;5.05;2.20;;;9.20;99.90;;;;;;4965386;28;20130;-79
2021/12/24 12:35:20;;;;;;;6.70;2.53;;;9.30;99.90;;;;;;4953823;28;20138;-79
2021/12/24 12:37:50;;;;;;;4.85;2.30;;;9.20;99.90;;;;;;4961470;28;20046;-78
2021/12/24 12:40:36;;;;;;;5.50;2.08;;;9.20;99.90;;;;;;4954531;28;20086;-79
2021/12/24 12:43:12;;;;;;;5.25;2.10;;;9.30;99.90;;;;;;4957095;28;20493;-79
2021/12/24 12:46:04;;;;;;;4.68;1.88;;;9.20;99.90;;;;;;4955900;28;20063;-78
2021/12/24 12:48:53;;;;;;;3.95;1.80;;;9.30;99.90;;;;;;4962760;28;20069;-78
2021/12/24 12:51:55;;;;;;;4.20;2.17;;;9.20;99.90;;;;;;4953756;28;20051;-79
2021/12/24 12:54:39;;;;;;;5.07;1.90;;;9.20;99.90;;;;;;4962034;28;20134;-78
2021/12/24 12:57:31;;;;;;;4.00;2.00;;;9.30;99.90;;;;;;4956421;28;20051;-79
2021/12/24 13:00:20;;;;;;;4.40;1.88;;;9.30;99.90;;;;;;4938905;28;20055;-77
2021/12/24 13:03:11;;;;;;;4.88;1.90;;;9.30;99.90;;;;;;4952495;28;20047;-79
2021/12/24 13:06:13;;;;;;;3.97;1.92;;;9.30;99.90;;;;;;4952091;28;20139;-81
2021/12/24 13:08:42;;;;;;;4.07;2.10;;;9.30;99.90;;;;;;4905531;29;20162;-78
2021/12/24 13:11:12;;;;;;;4.35;2.00;;;9.30;99.90;;;;;;4895164;29;20052;-79
2021/12/24 13:13:55;;;;;;;6.50;2.03;;;9.30;99.90;;;;;;4929986;28;20057;-79
2021/12/24 13:16:30;;;;;;;3.85;1.95;;;9.40;99.90;;;;;;4962277;28;20055;-79
2021/12/24 13:19:21;;;;;;;4.10;2.00;;;9.40;99.90;;;;;;4963635;28;20133;-79
2021/12/24 13:24:46;;;;;;;;;;;;;;;;;;4963980;28;20502;-80
2021/12/24 13:27:13;;;;;;;4.72;2.00;;;;;;;;;;4961948;28;19922;-81
2021/12/24 13:29:43;;;;;;;3.80;1.75;;;9.30;99.90;;;;;;4960067;28;20058;-81
2021/12/24 13:32:10;;;;;;;5.00;1.98;;;9.40;99.90;;;;;;4953234;28;20055;-79
2021/12/24 13:34:40;;;;;;;4.47;2.17;;;9.40;99.90;;;;;;4960174;28;20043;-80
2021/12/24 13:37:18;;;;;;;4.57;2.15;;;9.40;99.90;;;;;;4960110;28;20093;-81
2021/12/24 13:39:51;;;;;;;4.68;2.40;;;9.50;99.90;;;;;;4960040;28;20869;-81
2021/12/24 13:42:19;;;;;;;4.20;2.10;;;9.50;99.90;;;;;;4957656;28;20051;-80
2021/12/24 13:44:48;;;;;;;4.20;2.08;;;9.50;99.90;;;;;;4967311;28;20051;-80
2021/12/24 13:47:26;;;;;;;5.00;2.17;;;9.50;99.90;;;;;;4971543;28;20492;-80
2021/12/24 13:50:11;;;;;;;7.25;2.30;;;9.60;99.90;;;;;;4971379;28;20051;-79
2021/12/24 13:55:31;;;;;;;4.95;1.90;;;9.60;99.90;;;;;;4971160;28;20058;-80
2021/12/24 13:58:01;;;;;;;3.47;1.83;;;9.60;99.90;;;;;;4971006;28;20050;-80
2021/12/24 14:00:30;;;;;;;4.90;2.08;;;9.60;99.90;;;;;;4971360;28;20125;-79
2021/12/24 14:03:02;;;;;;;3.90;2.00;;;9.60;99.90;;;;;;4971139;28;20051;-80
2021/12/24 14:05:30;;;;;;;5.20;2.00;;;9.60;99.90;;;;;;4971359;28;20112;-80
2021/12/24 14:08:10;;;;;;;3.70;1.90;;;9.60;99.90;;;;;;4970850;28;20525;-80
2021/12/24 14:10:38;;;;;;;4.13;2.00;;;9.60;99.90;;;;;;4965937;28;20049;-80
2021/12/24 14:13:10;;;;;;;3.80;1.88;;;9.60;99.90;;;;;;4952382;28;20059;-80
2021/12/24 14:15:51;;;;;;;3.58;1.90;;;9.70;99.90;;;;;;4951633;29;20874;-80
2021/12/24 14:18:33;;;;;;;19.98;8.98;;;9.60;99.90;;;;;;4964727;28;20050;-81
2021/12/24 14:23:42;;;;;;;12.23;5.60;;;9.70;99.90;;;;;;4956867;28;20047;-82
2021/12/24 14:26:11;;;;;;;4.88;2.08;;;9.60;99.90;;;;;;4961601;28;20134;-81
2021/12/24 14:28:38;;;;;;;4.05;1.90;;;9.70;99.90;;;;;;4962538;28;20046;-81
2021/12/24 14:31:06;;;;;;;4.22;1.90;;;9.70;99.90;;;;;;4955631;28;20051;-82
2021/12/24 14:33:36;;;;;;;3.53;1.70;;;9.70;99.90;;;;;;4959291;28;20055;-84
2021/12/24 14:36:08;;;;;;;5.13;2.30;;;9.70;99.90;;;;;;4959215;28;20130;-82
2021/12/24 14:38:35;;;;;;;5.93;2.40;;;9.70;99.90;;;;;;4958058;28;20059;-84
2021/12/24 14:41:02;;;;;;;4.95;2.40;;;9.70;99.90;;;;;;4958792;28;20046;-82
2021/12/24 14:43:34;;;;;;;3.97;1.80;;;9.70;99.90;;;;;;4962077;28;20053;-84
2021/12/24 14:46:09;;;;;;;2.33;1.10;;;9.70;99.90;;;;;;4961694;28;20134;-84
2021/12/24 14:48:36;;;;;;;3.00;1.40;;;9.70;99.90;;;;;;4956119;28;20117;-84
2021/12/24 14:51:08;;;;;;;3.63;1.60;;;9.70;99.90;;;;;;4962227;28;20515;-88
2021/12/24 14:53:37;;;;;;;3.30;1.52;;;9.70;99.90;;;;;;4955873;28;20078;-86
2021/12/24 14:56:07;;;;;;;3.65;1.73;;;9.70;99.90;;;;;;4969984;28;20556;-88
2021/12/24 14:58:36;;;;;;;5.68;1.92;;;9.60;99.90;;;;;;4959593;28;20150;-85
2021/12/24 15:01:08;;;;;;;3.97;1.40;;;9.70;99.90;;;;;;4958828;28;20082;-87
2021/12/24 15:03:37;;;;;;;2.90;1.48;;;9.70;99.90;;;;;;4959214;28;20138;-83
2021/12/24 15:06:17;;;;;;;5.28;2.38;;;9.60;99.90;;;;;;4966554;28;20483;-82
2021/12/24 15:08:46;;;;;;;4.97;2.10;;;9.60;99.90;;;;;;4957264;28;20496;-82
2021/12/24 15:11:19;;;;;;;8.77;3.67;;;9.60;99.90;;;;;;4961525;28;20472;-83
2021/12/24 15:13:50;;;;;;;3.72;1.98;;;9.60;99.90;;;;;;4961873;28;20057;-88
2021/12/24 15:16:18;;;;;;;3.65;1.98;;;9.60;99.90;;;;;;4962945;28;20055;-87
2021/12/24 15:18:48;;;;;;;4.50;2.10;;;9.60;99.90;;;;;;4961780;28;20049;-86
2021/12/24 15:21:18;;;;;;;4.25;1.88;;;9.60;99.90;;;;;;4961534;28;20141;-84
2021/12/24 15:23:46;;;;;;;4.32;2.00;;;9.60;99.90;;;;;;4962614;28;20082;-81
2021/12/24 15:26:16;;;;;;;4.00;1.90;;;9.50;99.90;;;;;;4961328;28;20109;-84
2021/12/24 15:28:46;;;;;;;4.07;2.00;;;9.50;99.90;;;;;;4962493;28;20053;-86
2021/12/24 15:31:16;;;;;;;4.65;2.10;;;9.50;99.90;;;;;;4964878;28;20058;-83
2021/12/24 15:33:43;;;;;;;5.03;2.22;;;9.50;99.90;;;;;;4962257;28;20461;-82
2021/12/24 15:36:12;;;;;;;4.53;2.40;;;9.50;99.90;;;;;;4962478;28;20130;-81
2021/12/24 15:38:41;;;;;;;5.68;2.80;;;9.60;99.90;;;;;;4961070;28;20047;-81
2021/12/24 15:41:10;;;;;;;6.47;2.83;;;9.50;99.90;;;;;;4962029;28;20125;-80
2021/12/24 15:43:38;;;;;;;4.72;2.25;;;9.50;99.90;;;;;;4966050;28;20138;-84
2021/12/24 15:46:06;;;;;;;4.65;2.50;;;9.50;99.90;;;;;;4974706;28;20416;-94
2021/12/24 15:48:34;;;;;;;4.60;2.10;;;9.50;99.90;;;;;;4964430;28;20146;-91
2021/12/24 15:51:04;;;;;;;4.22;2.03;;;9.50;99.90;;;;;;4964673;28;20314;-89
2021/12/24 15:53:32;;;;;;;4.05;2.20;;;9.50;99.90;;;;;;4955196;28;20066;-83
2021/12/24 15:56:04;;;;;;;5.00;2.05;;;9.50;99.90;;;;;;4963267;28;20046;-87
2021/12/24 15:58:32;;;;;;;3.70;1.77;;;9.50;99.90;;;;;;4963054;28;20501;-88
2021/12/24 16:01:00;;;;;;;4.90;2.03;;;9.50;99.90;;;;;;4960975;28;20441;-83
2021/12/24 16:03:27;;;;;;;4.07;2.15;;;9.50;99.90;;;;;;4961900;28;20039;-85
2021/12/24 16:05:55;;;;;;;3.95;1.90;;;9.50;99.90;;;;;;4967877;28;20374;-84
2021/12/24 16:08:23;;;;;;;4.15;2.10;;;9.50;99.90;;;;;;4958326;28;20050;-85
2021/12/24 16:10:50;;;;;;;4.80;2.33;;;9.50;99.90;;;;;;4960135;28;20486;-84
2021/12/24 16:13:20;;;;;;;5.03;2.20;;;9.50;99.90;;;;;;4963181;28;20138;-84
2021/12/24 16:15:51;;;;;;;4.10;2.00;;;9.50;99.90;;;;;;4959710;28;20117;-84
2021/12/24 16:18:19;;;;;;;4.53;2.15;;;9.50;99.90;;;;;;4969669;28;20131;-84
2021/12/24 16:20:46;;;;;;;3.83;1.85;;;9.50;99.90;;;;;;4965088;28;20060;-78
2021/12/24 16:23:14;;;;;;;4.88;2.08;;;9.50;99.90;;;;;;4963150;28;20488;-78
2021/12/24 16:25:41;;;;;;;3.50;2.00;;;9.50;99.90;;;;;;4961404;28;20047;-78
2021/12/24 16:28:09;;;;;;;4.97;2.30;;;9.50;99.90;;;;;;4961474;28;20047;-78
2021/12/24 16:30:39;;;;;;;4.35;2.00;;;9.50;99.90;;;;;;4961546;28;20142;-78
2021/12/24 16:33:09;;;;;;;5.03;2.20;;;9.50;99.90;;;;;;4961143;28;20139;-78
2021/12/24 16:35:39;;;;;;;4.70;1.90;;;9.50;99.90;;;;;;4964928;28;20137;-78
2021/12/24 16:38:07;;;;;;;8.32;4.43;;;9.50;99.90;;;;;;4967186;28;20057;-79
2021/12/24 16:40:35;;;;;;;16.73;7.35;;;9.50;99.90;;;;;;4963205;28;20054;-78
2021/12/24 16:43:07;;;;;;;5.57;2.60;;;9.50;99.90;;;;;;4964017;28;20047;-78
2021/12/24 16:45:35;;;;;;;4.97;2.00;;;9.50;99.90;;;;;;4960051;28;20432;-79
2021/12/24 16:48:05;;;;;;;4.38;2.13;;;9.50;99.90;;;;;;4956687;28;20071;-78
2021/12/24 16:50:33;;;;;;;4.22;2.20;;;9.50;99.90;;;;;;4952968;29;20043;-78
2021/12/24 16:53:00;;;;;;;4.45;2.40;;;9.50;99.90;;;;;;4953232;29;20048;-79
2021/12/24 16:55:28;;;;;;;4.38;2.25;;;9.50;99.90;;;;;;4952972;29;20481;-78
2021/12/24 16:57:59;;;;;;;4.18;2.15;;;9.40;99.90;;;;;;4952945;28;20055;-78
2021/12/24 17:00:29;;;;;;;4.00;2.20;;;9.40;99.90;;;;;;4953304;29;20062;-79
2021/12/24 17:02:57;;;;;;;4.50;2.20;;;9.40;99.90;;;;;;4957907;28;20554;-78
2021/12/24 17:05:27;;;;;;;4.50;2.28;;;9.40;99.90;;;;;;4961408;28;20051;-77
2021/12/24 17:07:54;;;;;;;4.28;2.15;;;9.40;99.90;;;;;;4952938;29;20047;-82
2021/12/24 17:10:21;;;;;;;4.68;2.13;;;9.50;99.90;;;;;;4960662;28;20050;-79
2021/12/24 17:12:49;;;;;;;4.63;2.08;;;9.40;99.90;;;;;;4963738;28;20039;-80
2021/12/24 17:15:18;;;;;;;4.47;2.20;;;9.40;99.90;;;;;;4956296;28;20497;-78
2021/12/24 17:17:45;;;;;;;4.15;2.30;;;9.40;99.90;;;;;;4958230;28;20047;-78
2021/12/24 17:20:15;;;;;;;4.15;1.88;;;9.40;99.90;;;;;;4956365;28;20055;-79
2021/12/24 17:22:45;;;;;;;3.67;2.13;;;9.50;99.90;;;;;;4963332;28;20113;-78
2021/12/24 17:25:18;;;;;;;4.38;2.10;;;9.40;99.90;;;;;;4962372;28;20448;-78
2021/12/24 17:27:47;;;;;;;4.55;2.30;;;9.40;99.90;;;;;;4964418;28;20053;-78
2021/12/24 17:30:18;;;;;;;8.18;4.55;;;9.40;99.90;;;;;;4956705;28;20051;-78
2021/12/24 17:32:46;;;;;;;7.47;4.07;;;9.40;99.90;;;;;;4963788;28;20054;-77
2021/12/24 17:35:15;;;;;;;4.55;2.53;;;9.40;99.90;;;;;;4957327;28;20070;-78
2021/12/24 17:37:43;;;;;;;5.57;2.42;;;9.40;99.90;;;;;;4959367;28;20054;-78
2021/12/24 17:40:13;;;;;;;5.80;2.67;;;9.40;99.90;;;;;;4960127;28;20082;-79
2021/12/24 17:42:41;;;;;;;3.83;1.73;;;9.40;99.90;;;;;;4959884;28;20043;-80
2021/12/24 17:45:13;;;;;;;3.90;1.98;;;9.40;99.90;;;;;;4959933;28;20047;-78
2021/12/24 17:47:41;;;;;;;4.18;2.03;;;9.40;99.90;;;;;;4964531;28;20050;-79
2021/12/24 17:50:11;;;;;;;4.43;2.10;;;9.40;99.90;;;;;;4959430;28;20135;-80
2021/12/24 17:52:39;;;;;;;4.90;2.10;;;9.40;99.90;;;;;;4962359;28;20121;-80
2021/12/24 17:55:10;;;;;;;4.20;2.00;;;9.40;99.90;;;;;;4956171;28;20114;-80
2021/12/24 17:57:39;;;;;;;4.53;2.10;;;9.40;99.90;;;;;;4958502;28;20130;-80
2021/12/24 18:00:09;;;;;;;4.95;2.00;;;9.40;99.90;;;;;;4959402;28;20355;-80
2021/12/24 18:02:38;;;;;;;4.28;2.00;;;9.40;99.90;;;;;;4962447;28;20043;-79
2021/12/24 18:05:07;;;;;;;4.50;2.30;;;9.50;99.90;;;;;;4955707;28;20047;-80
2021/12/24 18:07:34;;;;;;;4.45;2.00;;;9.40;99.90;;;;;;4960127;28;20045;-79
2021/12/24 18:10:02;;;;;;;4.72;2.20;;;9.40;99.90;;;;;;4959359;28;20086;-79
2021/12/24 18:12:31;;;;;;;3.78;1.90;;;9.40;99.90;;;;;;4962245;28;20050;-80
2021/12/24 18:15:00;;;;;;;4.88;2.30;;;9.40;99.90;;;;;;4961786;28;20051;-80
2021/12/24 18:17:27;;;;;;;3.92;1.92;;;9.40;99.90;;;;;;4957966;28;20070;-79
2021/12/24 18:19:55;;;;;;;4.50;2.35;;;9.40;99.90;;;;;;4959325;28;20047;-79
2021/12/24 18:22:22;;;;;;;4.38;2.10;;;9.40;99.90;;;;;;4960237;28;20070;-79
2021/12/24 18:24:49;;;;;;;4.05;2.30;;;9.40;99.90;;;;;;4959310;28;20043;-79
2021/12/24 18:27:16;;;;;;;4.57;2.50;;;9.40;99.90;;;;;;4960449;28;20110;-80
2021/12/24 18:29:45;;;;;;;4.30;2.40;;;9.40;99.90;;;;;;4962205;28;20460;-79
2021/12/24 18:32:13;;;;;;;4.80;2.40;;;9.40;99.90;;;;;;4960799;28;20458;-78
2021/12/24 18:34:40;;;;;;;5.25;2.70;;;9.40;99.90;;;;;;4959173;28;20049;-79
2021/12/24 18:37:07;;;;;;;5.75;2.80;;;9.40;99.90;;;;;;4959102;28;20138;-78
2021/12/24 18:39:35;;;;;;;5.47;2.92;;;9.40;99.90;;;;;;4959541;28;20499;-79
2021/12/24 18:42:02;;;;;;;6.07;3.08;;;9.40;99.90;;;;;;4959052;28;20047;-79
2021/12/24 18:44:29;;;;;;;4.88;2.88;;;9.40;99.90;;;;;;4959283;28;20050;-79
2021/12/24 18:46:58;;;;;;;5.35;2.70;;;9.40;99.90;;;;;;4958731;28;20555;-79
2021/12/24 18:49:26;;;;;;;5.25;3.00;;;9.30;99.90;;;;;;4961468;28;20054;-79
2021/12/24 18:51:54;;;;;;;4.90;2.85;;;9.30;99.90;;;;;;4962006;28;20130;-78
2021/12/24 18:54:21;;;;;;;4.95;3.00;;;9.30;99.90;;;;;;4954055;28;20078;-79
2021/12/24 18:56:49;;;;;;;7.07;3.13;;;9.30;99.90;;;;;;4961144;28;20061;-78
2021/12/24 18:59:16;;;;;;;5.47;3.10;;;9.30;99.90;;;;;;4959453;28;20059;-80
2021/12/24 19:01:44;;;;;;;6.53;3.30;;;9.30;99.90;;;;;;4955550;28;20131;-79
2021/12/24 19:04:12;;;;;;;5.55;3.33;;;9.30;99.90;;;;;;4959344;28;20047;-78
2021/12/24 19:06:39;;;;;;;5.72;3.47;;;9.30;99.90;;;;;;4958612;28;20488;-80
2021/12/24 19:09:07;;;;;;;5.97;3.35;;;9.30;99.90;;;;;;4954709;28;20555;-79
2021/12/24 19:11:34;;;;;;;5.68;3.20;;;9.30;99.90;;;;;;4964787;28;20042;-79
2021/12/24 19:14:01;;;;;;;8.48;4.53;;;9.30;99.90;;;;;;4954526;28;20053;-79
2021/12/24 19:16:28;;;;;;;10.73;5.35;;;9.30;99.90;;;;;;4961451;28;20042;-79
2021/12/24 19:18:55;;;;;;;12.30;6.38;;;9.30;99.90;;;;;;4959863;28;20057;-80
2021/12/24 19:21:24;;;;;;;6.78;3.65;;;9.30;99.90;;;;;;4960473;28;20055;-80
2021/12/24 19:23:52;;;;;;;6.25;3.15;;;9.30;99.90;;;;;;4961485;28;20043;-80
2021/12/24 19:26:19;;;;;;;6.68;2.95;;;9.30;99.90;;;;;;4962070;28;20077;-80